Time;durP1;ratioP1;P1;durP2;ratioP2;P2;SDS_P1;SDS_P2;PMS_P1;PMS_P2;Temp;Humidity;BMP_temperature;BMP_pressure;BME280_temperature;BME280_humidity;BME280_pressure;Samples;Min_cycle;Max_cycle;Signal;HPM_P1;HPM_P2
2021/12/13 00:02:06;;;;;;;6.57;2.20;;;20.20;58.00;;;;;;5012422;28;20042;-62
2021/12/13 00:04:37;;;;;;;4.85;1.92;;;20.20;58.00;;;;;;5012808;28;20057;-62
2021/12/13 00:07:13;;;;;;;4.63;1.80;;;20.20;58.00;;;;;;4994273;28;20089;-62
2021/12/13 00:09:40;;;;;;;4.15;1.90;;;20.10;57.90;;;;;;5012673;28;20050;-62
2021/12/13 00:12:06;;;;;;;5.10;2.20;;;20.20;58.00;;;;;;4998125;28;20053;-62
2021/12/13 00:14:34;;;;;;;4.97;2.03;;;20.10;57.90;;;;;;4982845;28;20387;-62
2021/12/13 00:17:11;;;;;;;4.68;2.20;;;20.10;57.90;;;;;;4998919;28;20046;-62
2021/12/13 00:19:59;;;;;;;5.38;2.40;;;20.10;57.90;;;;;;4982963;28;20133;-62
2021/12/13 00:22:47;;;;;;;6.95;1.95;;;20.10;57.90;;;;;;4999320;28;20053;-62
2021/12/13 00:25:18;;;;;;;5.60;2.17;;;20.10;57.80;;;;;;5016133;28;20486;-62
2021/12/13 00:27:47;;;;;;;4.35;2.08;;;20.10;57.90;;;;;;5015476;28;20069;-62
2021/12/13 00:30:58;;;;;;;6.00;1.98;;;20.10;57.90;;;;;;4982705;28;20049;-62
2021/12/13 00:33:45;;;;;;;5.25;2.08;;;20.10;57.80;;;;;;4961485;28;20057;-62
2021/12/13 00:36:18;;;;;;;5.10;2.00;;;20.10;57.90;;;;;;5016276;28;20132;-62
2021/12/13 00:38:46;;;;;;;5.68;1.95;;;20.00;57.80;;;;;;5015732;28;20133;-62
2021/12/13 00:41:14;;;;;;;5.15;2.05;;;20.10;57.90;;;;;;4997987;28;20092;-62
2021/12/13 00:43:45;;;;;;;4.47;2.28;;;20.00;57.70;;;;;;5016193;28;20042;-61
2021/12/13 00:46:12;;;;;;;5.38;2.05;;;20.00;57.70;;;;;;5016355;28;20054;-62
2021/12/13 00:48:38;;;;;;;5.95;2.20;;;20.00;57.70;;;;;;4997467;28;20096;-62
2021/12/13 00:51:27;;;;;;;4.28;1.77;;;20.00;57.70;;;;;;5015726;28;20046;-62
2021/12/13 00:53:55;;;;;;;5.57;2.45;;;20.00;57.70;;;;;;5015368;28;20512;-62
2021/12/13 00:56:42;;;;;;;6.03;2.03;;;20.00;57.80;;;;;;4998119;28;20045;-62
2021/12/13 00:59:09;;;;;;;5.40;2.43;;;20.00;57.70;;;;;;5015527;28;20712;-62
2021/12/13 01:01:35;;;;;;;6.03;2.60;;;20.00;57.80;;;;;;4981811;28;20317;-61
2021/12/13 01:04:04;;;;;;;5.93;2.45;;;20.00;57.70;;;;;;4981084;28;20062;-62
2021/12/13 01:06:58;;;;;;;5.50;2.25;;;20.00;57.80;;;;;;4997765;28;20054;-62
2021/12/13 01:09:51;;;;;;;5.45;2.45;;;20.00;57.70;;;;;;5015260;28;20489;-62
2021/12/13 01:12:20;;;;;;;5.70;2.55;;;20.00;57.70;;;;;;5015942;28;20046;-62
2021/12/13 01:14:46;;;;;;;5.50;2.20;;;19.90;57.70;;;;;;4997830;28;20053;-62
2021/12/13 01:17:41;;;;;;;5.20;2.75;;;19.90;57.70;;;;;;5014729;28;20085;-62
2021/12/13 01:20:41;;;;;;;6.03;1.83;;;19.90;57.60;;;;;;4997525;28;20053;-62
2021/12/13 01:23:16;;;;;;;4.93;2.22;;;19.90;57.60;;;;;;5008678;28;20069;-62
2021/12/13 01:25:59;;;;;;;4.35;2.33;;;19.90;57.70;;;;;;5015118;28;20042;-62
2021/12/13 01:28:34;;;;;;;3.05;1.63;;;19.90;57.70;;;;;;4983602;28;20085;-62
2021/12/13 01:31:03;;;;;;;5.65;2.30;;;19.90;57.60;;;;;;4996752;28;20065;-62
2021/12/13 01:33:30;;;;;;;4.82;2.13;;;19.90;57.70;;;;;;5015261;28;20049;-62
2021/12/13 01:35:58;;;;;;;7.63;2.35;;;19.90;57.70;;;;;;4997349;28;20073;-62
2021/12/13 01:38:33;;;;;;;5.15;2.10;;;19.90;57.60;;;;;;4996818;28;20095;-62
2021/12/13 01:41:01;;;;;;;5.20;2.38;;;19.90;57.60;;;;;;5014896;28;20478;-62
2021/12/13 01:43:29;;;;;;;6.23;2.33;;;19.90;58.30;;;;;;5014524;28;20049;-62
2021/12/13 01:45:56;;;;;;;5.80;2.20;;;19.80;57.50;;;;;;4996900;28;20057;-62
2021/12/13 01:48:33;;;;;;;4.85;1.95;;;19.90;57.60;;;;;;4997444;28;20077;-62
2021/12/13 01:51:08;;;;;;;4.60;2.20;;;19.80;57.60;;;;;;4996622;28;20054;-62
2021/12/13 01:53:37;;;;;;;5.05;2.20;;;19.80;57.60;;;;;;4997106;28;20050;-61
2021/12/13 01:56:11;;;;;;;2.92;1.70;;;19.80;57.50;;;;;;5014361;28;20544;-62
2021/12/13 01:58:42;;;;;;;4.82;2.17;;;19.80;57.60;;;;;;5014394;28;20053;-62
2021/12/13 02:01:11;;;;;;;5.65;2.30;;;19.80;57.50;;;;;;5014672;28;20077;-62
2021/12/13 02:03:47;;;;;;;5.53;2.50;;;19.80;57.60;;;;;;4996742;28;20107;-62
2021/12/13 02:06:14;;;;;;;4.75;2.28;;;19.80;57.50;;;;;;5013781;28;20456;-62
2021/12/13 02:08:40;;;;;;;5.22;2.25;;;19.80;57.50;;;;;;5014715;28;20050;-61
2021/12/13 02:11:05;;;;;;;5.90;2.33;;;19.80;57.60;;;;;;5014672;28;20390;-62
2021/12/13 02:13:38;;;;;;;6.82;2.10;;;19.80;57.60;;;;;;5013460;28;20077;-62
2021/12/13 02:18:51;;;;;;;4.40;2.10;;;19.80;57.60;;;;;;5013607;28;20082;-62
2021/12/13 02:21:27;;;;;;;5.30;2.10;;;19.70;57.50;;;;;;5014113;28;20545;-62
2021/12/13 02:23:56;;;;;;;3.85;2.47;;;19.80;57.50;;;;;;5013872;28;20082;-62
2021/12/13 02:26:21;;;;;;;3.78;2.15;;;19.80;58.30;;;;;;5013623;28;20121;-62
2021/12/13 02:28:49;;;;;;;4.45;2.10;;;19.80;57.60;;;;;;4996169;28;20132;-62
2021/12/13 02:31:19;;;;;;;4.03;1.88;;;19.80;57.50;;;;;;4964279;28;20585;-62
2021/12/13 02:33:50;;;;;;;4.10;2.00;;;19.70;57.40;;;;;;5012427;28;20498;-62
2021/12/13 02:36:37;;;;;;;5.38;2.30;;;19.80;57.50;;;;;;5014143;28;20050;-62
2021/12/13 02:39:30;;;;;;;3.78;1.77;;;19.80;57.40;;;;;;4996074;28;20061;-62
2021/12/13 02:41:56;;;;;;;4.35;2.15;;;19.80;57.40;;;;;;5009585;28;20053;-62
2021/12/13 02:44:25;;;;;;;3.97;1.92;;;19.70;57.40;;;;;;5013771;28;20097;-61
2021/12/13 02:46:52;;;;;;;3.30;1.88;;;19.70;57.40;;;;;;4995841;28;20117;-62
2021/12/13 02:49:18;;;;;;;3.00;1.77;;;19.80;57.50;;;;;;5013751;28;20038;-62
2021/12/13 02:51:49;;;;;;;5.93;1.73;;;19.80;57.50;;;;;;4995837;28;20486;-62
2021/12/13 02:54:25;;;;;;;3.13;1.77;;;19.80;57.50;;;;;;5013501;28;20046;-62
2021/12/13 02:57:12;;;;;;;3.03;1.90;;;19.80;57.40;;;;;;5130896;27;20897;-61
2021/12/13 02:59:39;;;;;;;3.53;2.10;;;19.80;57.50;;;;;;5131233;27;20040;-61
2021/12/13 03:02:11;;;;;;;5.13;1.70;;;19.80;57.40;;;;;;5113281;27;20048;-60
2021/12/13 03:04:36;;;;;;;3.80;1.80;;;19.90;57.40;;;;;;5110267;28;20048;-61
2021/12/13 03:07:07;;;;;;;4.32;1.80;;;19.80;57.40;;;;;;5109961;28;20048;-61
2021/12/13 03:09:33;;;;;;;3.50;1.77;;;19.80;57.40;;;;;;5109502;28;20054;-61
2021/12/13 03:11:59;;;;;;;4.30;2.00;;;19.90;57.40;;;;;;5108673;28;20048;-61
2021/12/13 03:14:28;;;;;;;4.05;1.70;;;19.90;57.40;;;;;;5110564;28;20124;-61
2021/12/13 03:16:57;;;;;;;3.95;1.75;;;19.90;57.40;;;;;;5108976;28;20043;-61
2021/12/13 03:20:04;;;;;;;4.32;1.98;;;19.90;57.40;;;;;;5110080;28;20048;-61
2021/12/13 03:22:48;;;;;;;3.72;1.63;;;19.90;57.40;;;;;;5109291;28;20055;-61
2021/12/13 03:25:52;;;;;;;3.55;1.60;;;19.90;57.40;;;;;;5109987;28;20048;-61
2021/12/13 03:28:30;;;;;;;3.25;1.73;;;19.90;57.30;;;;;;5109495;28;20054;-61
2021/12/13 03:31:27;;;;;;;3.10;1.93;;;19.90;57.40;;;;;;5107758;28;20043;-61
2021/12/13 03:34:01;;;;;;;3.08;1.65;;;19.90;57.30;;;;;;5100692;28;20511;-60
2021/12/13 03:36:38;;;;;;;3.17;1.70;;;20.00;57.40;;;;;;5109512;28;20051;-61
2021/12/13 03:39:06;;;;;;;2.70;1.60;;;20.00;57.30;;;;;;5108218;28;20036;-61
2021/12/13 03:41:32;;;;;;;2.30;1.30;;;20.00;57.30;;;;;;5108964;28;20225;-61
2021/12/13 03:44:02;;;;;;;3.17;1.48;;;20.00;57.30;;;;;;5107998;28;20036;-61
2021/12/13 03:46:29;;;;;;;2.50;1.40;;;20.00;57.30;;;;;;5109905;28;20040;-61
2021/12/13 03:48:55;;;;;;;3.22;1.38;;;20.00;57.30;;;;;;5108101;28;20058;-61
2021/12/13 03:51:23;;;;;;;3.95;1.40;;;20.00;57.30;;;;;;5108914;28;20132;-61
2021/12/13 03:53:50;;;;;;;3.15;1.45;;;20.00;57.30;;;;;;5108083;28;20036;-61
2021/12/13 03:56:24;;;;;;;3.00;1.45;;;20.10;57.40;;;;;;5109197;28;20055;-61
2021/12/13 03:58:52;;;;;;;3.08;1.23;;;20.10;57.30;;;;;;5107343;28;20040;-60
2021/12/13 04:01:19;;;;;;;1.85;1.33;;;20.10;57.30;;;;;;5109759;28;20040;-61
2021/12/13 04:03:45;;;;;;;3.77;1.40;;;20.10;57.40;;;;;;5109032;28;20048;-61
2021/12/13 04:06:16;;;;;;;3.28;1.40;;;20.10;57.30;;;;;;5107394;28;20365;-61
2021/12/13 04:08:44;;;;;;;1.83;1.08;;;20.10;57.30;;;;;;5095321;28;20127;-61
2021/12/13 04:11:10;;;;;;;2.47;1.17;;;20.10;57.20;;;;;;5094064;28;20044;-61
2021/12/13 04:13:44;;;;;;;2.50;1.30;;;20.10;57.30;;;;;;5095567;28;20395;-61
2021/12/13 04:16:34;;;;;;;2.13;1.17;;;20.20;57.30;;;;;;5095466;28;20442;-61
2021/12/13 04:19:06;;;;;;;2.28;1.25;;;20.10;57.20;;;;;;5093331;28;20044;-61
2021/12/13 04:21:35;;;;;;;3.15;1.00;;;20.20;57.30;;;;;;5095700;28;20036;-61
2021/12/13 04:24:01;;;;;;;;;;;20.20;57.30;;;;;;5094292;28;20051;-61
2021/12/13 04:26:27;;;;;;;2.80;1.40;;;20.20;57.20;;;;;;5094657;28;19916;-61
2021/12/13 04:28:55;;;;;;;2.42;1.02;;;20.20;57.20;;;;;;5095001;28;20044;-61
2021/12/13 04:31:23;;;;;;;2.53;1.13;;;20.20;57.20;;;;;;5094289;28;20048;-61
2021/12/13 04:33:50;;;;;;;;;;;20.20;57.20;;;;;;5094622;28;20032;-60
2021/12/13 04:36:33;;;;;;;1.52;0.90;;;20.20;57.20;;;;;;5095351;28;19930;-61
2021/12/13 04:39:20;;;;;;;1.98;1.30;;;20.20;57.20;;;;;;5093233;28;20043;-61
2021/12/13 04:42:00;;;;;;;2.28;1.10;;;20.20;57.20;;;;;;5093457;28;20055;-61
2021/12/13 04:44:31;;;;;;;2.13;1.17;;;20.20;57.20;;;;;;5094993;28;20500;-61
2021/12/13 04:46:58;;;;;;;3.53;1.08;;;20.20;57.20;;;;;;5094542;28;20051;-61
2021/12/13 04:49:25;;;;;;;1.85;1.20;;;20.20;57.10;;;;;;5076458;28;20478;-60
2021/12/13 04:52:00;;;;;;;2.10;1.00;;;20.20;57.10;;;;;;5093481;28;20082;-60
2021/12/13 04:54:28;;;;;;;3.00;1.35;;;20.20;57.10;;;;;;5094161;28;20043;-61
2021/12/13 04:56:55;;;;;;;2.00;0.98;;;20.20;57.10;;;;;;5094119;28;20101;-60
2021/12/13 04:59:21;;;;;;;1.60;0.90;;;20.30;57.10;;;;;;5094710;28;20075;-60
2021/12/13 05:01:50;;;;;;;2.80;1.20;;;20.30;57.20;;;;;;5092868;28;20071;-61
2021/12/13 05:04:15;;;;;;;2.40;1.00;;;20.30;57.10;;;;;;5094311;28;20090;-60
2021/12/13 05:06:41;;;;;;;1.63;0.95;;;20.30;57.10;;;;;;5091338;28;20079;-60
2021/12/13 05:09:09;;;;;;;2.00;1.02;;;20.30;57.10;;;;;;5093803;28;20430;-60
2021/12/13 05:12:13;;;;;;;1.48;0.80;;;20.30;57.10;;;;;;5094760;28;20047;-60
2021/12/13 05:14:46;;;;;;;3.53;1.30;;;20.30;57.10;;;;;;5060969;28;20064;-61
2021/12/13 05:17:15;;;;;;;1.40;0.90;;;20.30;57.10;;;;;;5094095;28;20048;-61
2021/12/13 05:19:45;;;;;;;2.63;1.00;;;20.30;57.10;;;;;;5092824;28;20075;-60
2021/12/13 05:22:12;;;;;;;1.67;0.85;;;20.30;57.00;;;;;;5092369;28;20043;-61
2021/12/13 05:24:49;;;;;;;2.28;0.77;;;20.30;57.00;;;;;;5110227;28;20044;-61
2021/12/13 05:27:24;;;;;;;2.53;1.00;;;20.40;57.00;;;;;;5094215;28;20459;-61
2021/12/13 05:29:49;;;;;;;2.33;0.73;;;20.40;57.10;;;;;;5093221;28;20123;-61
2021/12/13 05:32:29;;;;;;;1.58;0.88;;;20.30;57.00;;;;;;5093951;28;20136;-61
2021/12/13 05:35:01;;;;;;;1.98;0.80;;;20.40;57.00;;;;;;5109314;28;20129;-61
2021/12/13 05:37:38;;;;;;;2.72;1.30;;;20.30;57.00;;;;;;5093536;28;20108;-61
2021/12/13 05:40:07;;;;;;;2.25;0.80;;;20.40;57.00;;;;;;5093546;28;20036;-61
2021/12/13 05:42:41;;;;;;;2.05;0.80;;;20.40;57.00;;;;;;5109128;28;20054;-60
2021/12/13 05:45:08;;;;;;;1.80;0.90;;;20.40;57.00;;;;;;5093917;28;20040;-61
2021/12/13 05:47:34;;;;;;;2.20;0.77;;;20.40;57.00;;;;;;5093730;28;20055;-61
2021/12/13 05:50:00;;;;;;;2.00;0.80;;;20.40;57.00;;;;;;5093181;28;20032;-61
2021/12/13 05:52:31;;;;;;;1.45;0.70;;;20.40;57.00;;;;;;5093764;28;20078;-61
2021/12/13 05:54:58;;;;;;;0.73;0.60;;;20.40;56.90;;;;;;5109183;28;20059;-61
2021/12/13 05:57:26;;;;;;;2.17;0.88;;;20.40;57.00;;;;;;5092757;28;20048;-61
2021/12/13 06:00:16;;;;;;;1.33;0.80;;;20.40;56.90;;;;;;5093673;28;20126;-60
2021/12/13 06:03:00;;;;;;;1.40;0.85;;;20.40;56.90;;;;;;5093005;28;20397;-61
2021/12/13 06:05:43;;;;;;;1.70;0.73;;;20.40;56.90;;;;;;5093033;28;20040;-61
2021/12/13 06:08:17;;;;;;;2.00;0.77;;;20.40;56.90;;;;;;5093720;28;20047;-61
2021/12/13 06:10:47;;;;;;;1.77;0.75;;;20.40;56.90;;;;;;5092796;28;20059;-62
2021/12/13 06:13:44;;;;;;;1.80;0.80;;;20.40;56.90;;;;;;5091891;28;20601;-63
2021/12/13 06:16:10;;;;;;;1.75;0.80;;;20.40;56.90;;;;;;5093451;28;20051;-61
2021/12/13 06:18:43;;;;;;;1.17;0.73;;;20.40;56.80;;;;;;5092678;28;20036;-62
2021/12/13 06:21:17;;;;;;;1.88;0.90;;;20.40;56.80;;;;;;5092071;28;20051;-62
2021/12/13 06:23:43;;;;;;;0.80;0.52;;;20.50;56.90;;;;;;5092708;28;20044;-62
2021/12/13 06:26:10;;;;;;;1.45;0.70;;;20.50;56.90;;;;;;5091196;28;20044;-62
2021/12/13 06:28:44;;;;;;;2.73;0.90;;;20.50;56.90;;;;;;5093332;28;20047;-62
2021/12/13 06:31:12;;;;;;;2.22;0.80;;;20.50;56.80;;;;;;5093083;28;20390;-62
2021/12/13 06:34:00;;;;;;;1.70;0.80;;;20.50;56.80;;;;;;5092286;28;20044;-62
2021/12/13 06:36:32;;;;;;;1.63;0.70;;;20.50;56.80;;;;;;5093378;28;20502;-62
2021/12/13 06:39:03;;;;;;;1.33;0.80;;;20.50;56.80;;;;;;5092167;28;20039;-62
2021/12/13 06:41:29;;;;;;;1.35;0.77;;;20.50;56.80;;;;;;5108219;28;20490;-62
2021/12/13 06:44:07;;;;;;;1.48;0.73;;;20.50;56.90;;;;;;5092880;28;20040;-62
2021/12/13 06:46:53;;;;;;;4.43;0.80;;;20.50;56.80;;;;;;5092203;28;20047;-62
2021/12/13 06:49:23;;;;;;;2.97;0.90;;;20.50;56.80;;;;;;5092926;28;20029;-62
2021/12/13 06:51:55;;;;;;;1.70;0.80;;;20.50;56.80;;;;;;5092724;28;20052;-63
2021/12/13 06:54:34;;;;;;;2.40;0.88;;;20.50;56.80;;;;;;5107922;28;20127;-62
2021/12/13 06:57:11;;;;;;;3.28;0.80;;;20.50;56.80;;;;;;5092410;28;20044;-62
2021/12/13 06:59:45;;;;;;;1.95;0.80;;;20.60;56.80;;;;;;5092825;28;20044;-62
2021/12/13 07:02:22;;;;;;;1.48;0.85;;;20.60;56.80;;;;;;5092873;28;20048;-62
2021/12/13 07:05:04;;;;;;;1.10;0.65;;;20.60;56.80;;;;;;5092091;28;20480;-63
2021/12/13 07:07:33;;;;;;;1.92;0.68;;;20.60;56.70;;;;;;5091042;28;20432;-62
2021/12/13 07:10:01;;;;;;;1.30;0.80;;;20.60;56.70;;;;;;5091110;28;20044;-62
2021/12/13 07:12:28;;;;;;;1.97;0.80;;;20.60;56.70;;;;;;5091621;28;20040;-62
2021/12/13 07:14:53;;;;;;;1.40;0.90;;;20.60;56.70;;;;;;5091355;28;20595;-62
2021/12/13 07:17:28;;;;;;;2.80;0.93;;;20.60;56.60;;;;;;5092629;28;20119;-62
2021/12/13 07:19:56;;;;;;;1.55;0.70;;;20.60;56.70;;;;;;5092218;28;20059;-62
2021/12/13 07:22:24;;;;;;;1.60;0.80;;;20.60;56.60;;;;;;5092009;28;20051;-62
2021/12/13 07:25:05;;;;;;;3.15;1.00;;;20.70;56.60;;;;;;5092251;28;20072;-62
2021/12/13 07:27:33;;;;;;;3.75;0.80;;;20.60;56.60;;;;;;5092369;28;20044;-61
2021/12/13 07:30:05;;;;;;;3.25;1.00;;;20.70;56.50;;;;;;5107291;28;20043;-61
2021/12/13 07:32:36;;;;;;;3.00;1.00;;;20.70;56.60;;;;;;5107519;28;20123;-62
2021/12/13 07:35:16;;;;;;;2.20;0.90;;;20.70;56.70;;;;;;5107357;28;20515;-63
2021/12/13 07:37:52;;;;;;;2.63;1.25;;;20.70;57.40;;;;;;5092178;28;20044;-62
2021/12/13 07:40:29;;;;;;;3.53;1.10;;;20.70;56.80;;;;;;5092283;28;20044;-62
2021/12/13 07:43:10;;;;;;;4.13;1.10;;;20.70;56.80;;;;;;5093682;28;20067;-62
2021/12/13 07:45:41;;;;;;;2.85;1.00;;;20.70;56.90;;;;;;5096199;28;20069;-62
2021/12/13 07:48:15;;;;;;;3.80;1.10;;;20.70;56.90;;;;;;5120771;27;20043;-63
2021/12/13 07:50:41;;;;;;;3.60;0.95;;;20.70;57.00;;;;;;5114590;28;20047;-63
2021/12/13 07:53:10;;;;;;;2.92;1.10;;;20.70;57.10;;;;;;5116455;28;20072;-63
2021/12/13 07:55:41;;;;;;;2.70;1.30;;;20.80;57.30;;;;;;5114478;28;20063;-63
2021/12/13 07:58:06;;;;;;;3.08;1.10;;;20.80;57.40;;;;;;5097059;28;20051;-64
2021/12/13 08:00:39;;;;;;;4.18;1.05;;;20.80;57.60;;;;;;5098160;28;20040;-63
2021/12/13 08:03:07;;;;;;;3.85;1.30;;;20.80;57.80;;;;;;5115574;28;20043;-63
2021/12/13 08:05:45;;;;;;;2.20;1.23;;;20.80;57.90;;;;;;5114973;28;20054;-63
2021/12/13 08:08:26;;;;;;;5.65;1.30;;;20.80;58.10;;;;;;5115036;28;20039;-63
2021/12/13 08:10:57;;;;;;;3.92;1.50;;;20.90;58.30;;;;;;5113665;28;20078;-63
2021/12/13 08:13:28;;;;;;;2.67;1.00;;;20.90;58.30;;;;;;5115112;28;20058;-63
2021/12/13 08:16:00;;;;;;;2.15;0.98;;;20.90;58.40;;;;;;5114436;28;20081;-63
2021/12/13 08:18:51;;;;;;;5.28;1.35;;;20.90;58.50;;;;;;5115400;28;20051;-63
2021/12/13 08:21:24;;;;;;;1.95;0.90;;;20.90;58.60;;;;;;5110783;28;20058;-63
2021/12/13 08:23:49;;;;;;;3.33;1.23;;;20.90;58.60;;;;;;5114263;28;20044;-64
2021/12/13 08:26:37;;;;;;;3.38;1.27;;;21.00;58.60;;;;;;5113784;28;20046;-64
2021/12/13 08:29:08;;;;;;;1.70;1.00;;;20.90;58.70;;;;;;5114322;28;20054;-64
2021/12/13 08:31:35;;;;;;;3.35;1.40;;;21.00;58.70;;;;;;5114155;28;20068;-64
2021/12/13 08:34:08;;;;;;;2.80;1.08;;;21.00;58.70;;;;;;5115254;28;20051;-64
2021/12/13 08:36:39;;;;;;;3.80;1.27;;;21.00;58.80;;;;;;5114315;28;20043;-64
2021/12/13 08:39:09;;;;;;;2.50;1.40;;;21.00;58.70;;;;;;5114496;28;20185;-64
2021/12/13 08:41:35;;;;;;;4.20;1.30;;;21.00;58.80;;;;;;5115509;28;20035;-63
2021/12/13 08:44:09;;;;;;;3.00;1.20;;;21.00;58.80;;;;;;5114878;28;20054;-64
2021/12/13 08:46:55;;;;;;;2.13;1.25;;;21.00;58.80;;;;;;5114603;28;20092;-62
2021/12/13 08:49:31;;;;;;;2.47;1.10;;;21.00;58.70;;;;;;5115065;28;20506;-63
2021/12/13 08:52:23;;;;;;;4.60;1.45;;;21.00;58.70;;;;;;5115056;28;20044;-63
2021/12/13 08:55:12;;;;;;;4.75;1.23;;;21.00;58.70;;;;;;5113462;28;20076;-63
2021/12/13 08:57:44;;;;;;;4.13;1.45;;;21.00;58.70;;;;;;5115406;28;20046;-63
2021/12/13 09:00:13;;;;;;;2.65;1.05;;;21.10;58.70;;;;;;5114808;28;20044;-62
2021/12/13 09:03:05;;;;;;;3.40;1.40;;;21.00;58.70;;;;;;5113902;28;20092;-62
2021/12/13 09:05:34;;;;;;;2.22;1.40;;;21.00;58.60;;;;;;5091184;28;20050;-63
2021/12/13 09:08:13;;;;;;;3.47;1.40;;;21.00;58.70;;;;;;5114166;28;20043;-63
2021/12/13 09:10:47;;;;;;;2.20;1.20;;;21.10;58.90;;;;;;5115326;28;20043;-62
2021/12/13 09:13:14;;;;;;;4.60;1.40;;;21.10;59.10;;;;;;5114880;28;20100;-62
2021/12/13 09:15:39;;;;;;;1.77;1.30;;;21.10;59.10;;;;;;5114323;28;20039;-63
2021/12/13 09:18:06;;;;;;;3.15;1.48;;;21.10;59.10;;;;;;5113479;28;20043;-63
2021/12/13 09:20:41;;;;;;;3.20;1.30;;;21.10;59.10;;;;;;5113303;28;20123;-62
2021/12/13 09:23:27;;;;;;;5.90;1.50;;;21.20;59.30;;;;;;5113007;28;20040;-62
2021/12/13 09:26:08;;;;;;;2.53;1.27;;;21.20;59.30;;;;;;5114661;28;20263;-62
2021/12/13 09:28:42;;;;;;;3.17;1.50;;;21.20;59.30;;;;;;5112676;28;20044;-63
2021/12/13 09:31:13;;;;;;;2.22;1.05;;;21.20;59.30;;;;;;5111962;27;20470;-61
2021/12/13 09:33:42;;;;;;;2.97;1.30;;;21.20;59.30;;;;;;5114344;28;20036;-61
2021/12/13 09:36:11;;;;;;;;;;;21.20;59.30;;;;;;5113911;28;20092;-60
2021/12/13 09:38:39;;;;;;;5.68;1.30;;;21.10;59.70;;;;;;5114401;28;20351;-61
2021/12/13 09:41:36;;;;;;;4.72;1.30;;;21.20;59.10;;;;;;5114280;28;20039;-61
2021/12/13 09:44:17;;;;;;;2.40;1.45;;;21.20;59.10;;;;;;5110209;28;20490;-61
2021/12/13 09:46:56;;;;;;;2.75;1.73;;;21.20;59.00;;;;;;5111403;28;20753;-61
2021/12/13 09:49:33;;;;;;;2.72;0.98;;;21.20;59.00;;;;;;5110948;28;20490;-62
2021/12/13 09:52:19;;;;;;;4.18;1.45;;;21.20;59.00;;;;;;5111209;28;20043;-60
2021/12/13 09:54:57;;;;;;;4.03;1.30;;;21.20;58.80;;;;;;5113722;28;20484;-61
2021/12/13 09:57:28;;;;;;;2.30;1.30;;;21.20;58.80;;;;;;5112337;28;20052;-61
2021/12/13 09:59:54;;;;;;;5.25;1.50;;;21.20;58.80;;;;;;5113862;28;20054;-61
2021/12/13 10:02:23;;;;;;;2.72;1.23;;;21.20;58.70;;;;;;5113692;28;20044;-61
2021/12/13 10:04:49;;;;;;;1.83;1.20;;;21.20;58.70;;;;;;5112282;28;20052;-61
2021/12/13 10:07:26;;;;;;;2.45;1.30;;;21.20;58.60;;;;;;5113359;28;20043;-62
2021/12/13 10:09:55;;;;;;;4.00;1.33;;;21.20;58.50;;;;;;5111399;28;20794;-62
2021/12/13 10:12:30;;;;;;;4.35;1.80;;;21.20;58.60;;;;;;5113835;28;20039;-62
2021/12/13 10:14:57;;;;;;;4.28;1.30;;;21.20;58.70;;;;;;5113504;28;20058;-62
2021/12/13 10:17:25;;;;;;;6.22;1.52;;;21.20;58.80;;;;;;5112828;28;20054;-62
2021/12/13 10:19:53;;;;;;;7.28;1.80;;;21.20;58.90;;;;;;5113168;28;20039;-62
2021/12/13 10:22:24;;;;;;;3.35;1.25;;;21.30;59.10;;;;;;5113845;28;20088;-62
2021/12/13 10:24:55;;;;;;;3.28;1.13;;;21.30;59.20;;;;;;5112376;28;20043;-61
2021/12/13 10:27:21;;;;;;;3.38;1.23;;;21.30;59.20;;;;;;5113779;28;20036;-62
2021/12/13 10:29:49;;;;;;;2.13;1.20;;;21.30;59.20;;;;;;5113204;28;20050;-62
2021/12/13 10:32:24;;;;;;;3.47;1.50;;;21.30;59.30;;;;;;5112830;28;20123;-62
2021/12/13 10:34:53;;;;;;;4.85;1.60;;;21.30;59.30;;;;;;5112889;28;20488;-62
2021/12/13 10:37:27;;;;;;;4.90;1.50;;;21.30;59.30;;;;;;5112425;28;20097;-62
2021/12/13 10:39:56;;;;;;;2.42;1.42;;;21.40;59.30;;;;;;5111367;28;20139;-63
2021/12/13 10:42:30;;;;;;;3.45;1.40;;;21.30;59.20;;;;;;5113334;28;20122;-62
2021/12/13 10:44:56;;;;;;;7.45;1.83;;;21.30;59.10;;;;;;5112333;28;20039;-62
2021/12/13 10:47:30;;;;;;;4.13;1.88;;;21.40;59.20;;;;;;5113063;28;20042;-62
2021/12/13 10:49:56;;;;;;;6.20;1.88;;;21.40;59.30;;;;;;5113090;28;20040;-60
2021/12/13 10:52:33;;;;;;;3.33;1.60;;;21.40;59.20;;;;;;5112483;28;20042;-61
2021/12/13 10:55:08;;;;;;;4.13;1.52;;;21.40;59.00;;;;;;5112386;28;20059;-60
2021/12/13 10:57:37;;;;;;;4.10;1.70;;;21.40;59.80;;;;;;5113235;28;20055;-61
2021/12/13 11:00:09;;;;;;;3.58;1.85;;;21.40;59.20;;;;;;5112202;28;20127;-61
2021/12/13 11:02:35;;;;;;;6.60;2.33;;;21.40;59.10;;;;;;5113276;28;20055;-61
2021/12/13 11:05:05;;;;;;;3.72;1.70;;;21.40;59.10;;;;;;5112742;28;20043;-61
2021/12/13 11:07:31;;;;;;;6.68;2.05;;;21.40;59.00;;;;;;5111157;28;20542;-61
2021/12/13 11:09:57;;;;;;;5.70;2.30;;;21.40;59.20;;;;;;5112637;28;20130;-62
2021/12/13 11:12:26;;;;;;;5.20;2.08;;;21.40;58.80;;;;;;5112373;28;20078;-60
2021/12/13 11:14:53;;;;;;;5.80;2.00;;;21.40;58.80;;;;;;5110759;28;20399;-61
2021/12/13 11:17:22;;;;;;;3.97;2.15;;;21.30;58.80;;;;;;5114617;28;20047;-61
2021/12/13 11:19:49;;;;;;;4.43;2.20;;;21.30;58.70;;;;;;5116712;28;20051;-61
2021/12/13 11:22:22;;;;;;;6.55;1.92;;;21.30;58.70;;;;;;5116509;27;20036;-61
2021/12/13 11:24:50;;;;;;;5.95;2.05;;;21.30;58.80;;;;;;5098966;28;20058;-61
2021/12/13 11:27:20;;;;;;;;;;;21.30;58.90;;;;;;5115415;28;20859;-60
2021/12/13 11:29:46;;;;;;;6.18;2.03;;;21.30;58.80;;;;;;5116684;28;20391;-61
2021/12/13 11:32:34;;;;;;;6.75;2.20;;;21.30;58.90;;;;;;5116791;28;20503;-61
2021/12/13 11:35:14;;;;;;;5.10;2.13;;;21.30;59.00;;;;;;5115801;28;20118;-61
2021/12/13 11:38:14;;;;;;;4.75;1.92;;;21.30;59.10;;;;;;5116982;28;20044;-62
2021/12/13 11:41:13;;;;;;;6.03;1.90;;;21.30;59.00;;;;;;5115546;28;20047;-62
2021/12/13 11:43:55;;;;;;;5.72;2.00;;;21.30;59.10;;;;;;5116666;28;20399;-62
2021/12/13 11:46:45;;;;;;;4.35;1.95;;;21.30;59.20;;;;;;5115645;28;20051;-62
2021/12/13 11:49:32;;;;;;;4.88;2.00;;;21.40;59.20;;;;;;5115754;28;20043;-62
2021/12/13 11:52:22;;;;;;;3.72;2.10;;;21.40;59.40;;;;;;5113753;28;20043;-62
2021/12/13 11:55:25;;;;;;;5.78;2.33;;;21.30;59.30;;;;;;5112977;28;20441;-62
2021/12/13 11:58:16;;;;;;;3.67;1.98;;;21.40;59.60;;;;;;5104305;27;20082;-63
2021/12/13 12:01:17;;;;;;;5.63;2.00;;;21.40;59.60;;;;;;5037793;28;20473;-62
2021/12/13 12:04:07;;;;;;;3.17;1.75;;;21.30;59.50;;;;;;5054724;28;20491;-62
2021/12/13 12:07:03;;;;;;;8.68;2.53;;;21.40;59.50;;;;;;5055623;28;20076;-62
2021/12/13 12:09:55;;;;;;;4.47;2.13;;;21.30;59.50;;;;;;5054022;28;20072;-63
2021/12/13 12:12:39;;;;;;;5.45;1.95;;;21.40;59.60;;;;;;5054497;28;20102;-62
2021/12/13 12:15:06;;;;;;;5.82;2.28;;;21.30;59.60;;;;;;5054172;28;20049;-62
2021/12/13 12:17:32;;;;;;;12.60;2.30;;;21.30;59.70;;;;;;5054659;28;20044;-62
2021/12/13 12:19:58;;;;;;;4.78;2.40;;;21.40;59.70;;;;;;5054929;28;20090;-62
2021/12/13 12:22:27;;;;;;;6.32;1.55;;;21.40;59.50;;;;;;5055155;28;20120;-62
2021/12/13 12:24:55;;;;;;;4.30;1.90;;;21.40;59.40;;;;;;5054372;28;20128;-62
2021/12/13 12:27:26;;;;;;;4.63;1.90;;;21.40;59.40;;;;;;5055029;28;20045;-62
2021/12/13 12:29:57;;;;;;;4.13;1.70;;;21.40;59.40;;;;;;5053972;28;20049;-64
2021/12/13 12:32:32;;;;;;;4.18;1.65;;;21.40;59.20;;;;;;5054536;28;20047;-61
2021/12/13 12:35:06;;;;;;;4.22;2.00;;;21.40;59.20;;;;;;5054722;28;20056;-61
2021/12/13 12:37:36;;;;;;;4.55;2.10;;;21.40;59.20;;;;;;5053022;28;20053;-60
2021/12/13 12:40:08;;;;;;;5.25;2.03;;;21.40;59.10;;;;;;5053300;28;20053;-59
2021/12/13 12:42:35;;;;;;;5.43;1.70;;;21.40;59.10;;;;;;5053548;28;20072;-62
2021/12/13 12:45:09;;;;;;;7.53;2.50;;;21.30;58.90;;;;;;5052777;28;20052;-61
2021/12/13 12:47:34;;;;;;;6.20;2.30;;;21.30;59.00;;;;;;5054781;28;20045;-60
2021/12/13 12:50:23;;;;;;;5.72;1.95;;;21.30;59.10;;;;;;5054528;28;20486;-60
2021/12/13 12:52:58;;;;;;;7.55;2.10;;;21.30;59.00;;;;;;5048852;28;20045;-60
2021/12/13 12:55:45;;;;;;;6.35;2.10;;;21.30;59.10;;;;;;5035295;28;20085;-60
2021/12/13 12:58:20;;;;;;;6.40;2.07;;;21.30;59.10;;;;;;5033636;28;20156;-60
2021/12/13 13:00:46;;;;;;;6.50;1.85;;;21.30;59.30;;;;;;5032753;28;20042;-60
2021/12/13 13:03:26;;;;;;;5.65;2.08;;;21.30;59.30;;;;;;5034528;28;20046;-60
2021/12/13 13:05:54;;;;;;;5.18;2.00;;;21.30;59.30;;;;;;5032518;28;20041;-60
2021/12/13 13:08:31;;;;;;;6.70;2.00;;;21.30;59.40;;;;;;5033234;28;20041;-59
2021/12/13 13:11:26;;;;;;;6.00;2.17;;;21.30;59.40;;;;;;5034368;28;20049;-60
2021/12/13 13:13:42;;;;;;;4.45;1.92;;;21.30;59.50;;;;;;5033296;28;20045;-59
2021/12/13 13:16:08;;;;;;;4.07;1.95;;;21.30;59.50;;;;;;5034443;28;20048;-59
2021/12/13 13:18:33;;;;;;;4.47;1.95;;;21.30;59.60;;;;;;5034345;28;20049;-59
2021/12/13 13:21:04;;;;;;;6.65;2.53;;;21.30;59.60;;;;;;5031885;28;20050;-59
2021/12/13 13:23:40;;;;;;;7.93;2.20;;;21.30;59.80;;;;;;5034316;28;20045;-59
2021/12/13 13:26:05;;;;;;;6.05;2.10;;;21.30;59.80;;;;;;5034134;28;20050;-59